sensor_id;sensor_type;location;lat;lon;timestamp;P1;durP1;ratioP1;P2;durP2;ratioP2
9801;SDS011;4940;50.900;4.672;2023-07-02T00:02:20;22.23;;;14.40;;
9801;SDS011;4940;50.900;4.672;2023-07-02T00:04:47;22.30;;;13.70;;
9801;SDS011;4940;50.900;4.672;2023-07-02T00:07:14;24.58;;;14.65;;
9801;SDS011;4940;50.900;4.672;2023-07-02T00:09:42;22.02;;;13.88;;
9801;SDS011;4940;50.900;4.672;2023-07-02T00:12:09;17.17;;;14.40;;
9801;SDS011;4940;50.900;4.672;2023-07-02T00:14:38;21.13;;;15.60;;
9801;SDS011;4940;50.900;4.672;2023-07-02T00:17:05;24.70;;;15.65;;
9801;SDS011;4940;50.900;4.672;2023-07-02T00:19:33;25.98;;;17.05;;
9801;SDS011;4940;50.900;4.672;2023-07-02T00:22:00;25.15;;;16.80;;
9801;SDS011;4940;50.900;4.672;2023-07-02T00:24:28;24.50;;;17.90;;
9801;SDS011;4940;50.900;4.672;2023-07-02T00:26:55;29.38;;;18.70;;
9801;SDS011;4940;50.900;4.672;2023-07-02T00:29:22;23.55;;;18.50;;
9801;SDS011;4940;50.900;4.672;2023-07-02T00:31:51;24.40;;;18.60;;
9801;SDS011;4940;50.900;4.672;2023-07-02T00:34:18;21.33;;;18.35;;
9801;SDS011;4940;50.900;4.672;2023-07-02T00:36:46;28.10;;;19.88;;
9801;SDS011;4940;50.900;4.672;2023-07-02T00:39:13;23.30;;;19.08;;
9801;SDS011;4940;50.900;4.672;2023-07-02T00:41:41;26.95;;;19.48;;
9801;SDS011;4940;50.900;4.672;2023-07-02T00:44:11;27.77;;;20.50;;
9801;SDS011;4940;50.900;4.672;2023-07-02T00:46:38;24.02;;;18.00;;
9801;SDS011;4940;50.900;4.672;2023-07-02T00:49:07;22.48;;;19.00;;
9801;SDS011;4940;50.900;4.672;2023-07-02T00:51:35;27.00;;;19.15;;
9801;SDS011;4940;50.900;4.672;2023-07-02T00:54:03;26.85;;;18.67;;
9801;SDS011;4940;50.900;4.672;2023-07-02T00:56:31;27.15;;;20.35;;
9801;SDS011;4940;50.900;4.672;2023-07-02T00:58:59;26.88;;;19.92;;
9801;SDS011;4940;50.900;4.672;2023-07-02T01:01:26;27.55;;;19.85;;
9801;SDS011;4940;50.900;4.672;2023-07-02T01:03:56;26.48;;;20.65;;
9801;SDS011;4940;50.900;4.672;2023-07-02T01:06:27;29.88;;;21.83;;
9801;SDS011;4940;50.900;4.672;2023-07-02T01:08:56;26.90;;;22.35;;
9801;SDS011;4940;50.900;4.672;2023-07-02T01:11:25;25.75;;;22.10;;
9801;SDS011;4940;50.900;4.672;2023-07-02T01:13:55;26.95;;;20.60;;
9801;SDS011;4940;50.900;4.672;2023-07-02T01:16:26;28.73;;;20.95;;
9801;SDS011;4940;50.900;4.672;2023-07-02T01:18:56;28.20;;;21.60;;
9801;SDS011;4940;50.900;4.672;2023-07-02T01:21:25;27.92;;;18.70;;
9801;SDS011;4940;50.900;4.672;2023-07-02T01:23:53;33.25;;;23.98;;
9801;SDS011;4940;50.900;4.672;2023-07-02T01:26:20;28.75;;;22.25;;
9801;SDS011;4940;50.900;4.672;2023-07-02T01:28:47;31.52;;;19.83;;
9801;SDS011;4940;50.900;4.672;2023-07-02T01:31:16;30.98;;;22.60;;
9801;SDS011;4940;50.900;4.672;2023-07-02T01:33:43;35.08;;;23.77;;
9801;SDS011;4940;50.900;4.672;2023-07-02T01:36:10;33.42;;;22.13;;
9801;SDS011;4940;50.900;4.672;2023-07-02T01:38:41;27.80;;;24.52;;
9801;SDS011;4940;50.900;4.672;2023-07-02T01:41:09;29.48;;;24.05;;
9801;SDS011;4940;50.900;4.672;2023-07-02T01:43:36;32.70;;;26.17;;
9801;SDS011;4940;50.900;4.672;2023-07-02T01:46:03;30.10;;;23.70;;
9801;SDS011;4940;50.900;4.672;2023-07-02T01:48:31;34.38;;;24.92;;
9801;SDS011;4940;50.900;4.672;2023-07-02T01:50:58;33.50;;;26.40;;
9801;SDS011;4940;50.900;4.672;2023-07-02T01:53:25;31.85;;;26.73;;
9801;SDS011;4940;50.900;4.672;2023-07-02T01:55:54;36.17;;;28.15;;
9801;SDS011;4940;50.900;4.672;2023-07-02T01:58:21;34.60;;;28.02;;
9801;SDS011;4940;50.900;4.672;2023-07-02T02:00:49;38.45;;;29.15;;
9801;SDS011;4940;50.900;4.672;2023-07-02T02:03:16;33.03;;;27.55;;
9801;SDS011;4940;50.900;4.672;2023-07-02T02:05:44;36.63;;;28.58;;
9801;SDS011;4940;50.900;4.672;2023-07-02T02:08:11;35.28;;;28.45;;
9801;SDS011;4940;50.900;4.672;2023-07-02T02:10:38;33.78;;;30.13;;
9801;SDS011;4940;50.900;4.672;2023-07-02T02:13:07;33.05;;;28.08;;
9801;SDS011;4940;50.900;4.672;2023-07-02T02:15:34;36.53;;;30.23;;
9801;SDS011;4940;50.900;4.672;2023-07-02T02:18:02;34.83;;;25.55;;
9801;SDS011;4940;50.900;4.672;2023-07-02T02:20:30;36.58;;;30.50;;
9801;SDS011;4940;50.900;4.672;2023-07-02T02:22:57;35.45;;;31.60;;
9801;SDS011;4940;50.900;4.672;2023-07-02T02:25:24;38.47;;;32.85;;
9801;SDS011;4940;50.900;4.672;2023-07-02T02:27:52;38.97;;;30.85;;
9801;SDS011;4940;50.900;4.672;2023-07-02T02:30:21;36.67;;;32.78;;
9801;SDS011;4940;50.900;4.672;2023-07-02T02:32:48;37.40;;;33.42;;
9801;SDS011;4940;50.900;4.672;2023-07-02T02:35:15;40.88;;;31.40;;
9801;SDS011;4940;50.900;4.672;2023-07-02T02:37:43;33.70;;;28.10;;
9801;SDS011;4940;50.900;4.672;2023-07-02T02:40:10;38.83;;;34.00;;
9801;SDS011;4940;50.900;4.672;2023-07-02T02:42:38;40.35;;;35.92;;
9801;SDS011;4940;50.900;4.672;2023-07-02T02:45:06;40.63;;;34.17;;
9801;SDS011;4940;50.900;4.672;2023-07-02T02:47:35;39.40;;;35.05;;
9801;SDS011;4940;50.900;4.672;2023-07-02T02:50:02;41.08;;;35.58;;
9801;SDS011;4940;50.900;4.672;2023-07-02T02:52:30;41.40;;;34.92;;
9801;SDS011;4940;50.900;4.672;2023-07-02T02:54:57;39.53;;;34.38;;
9801;SDS011;4940;50.900;4.672;2023-07-02T02:57:25;39.58;;;34.72;;
9801;SDS011;4940;50.900;4.672;2023-07-02T02:59:52;44.17;;;39.65;;
9801;SDS011;4940;50.900;4.672;2023-07-02T03:02:19;41.33;;;35.33;;
9801;SDS011;4940;50.900;4.672;2023-07-02T03:04:48;47.53;;;42.47;;
9801;SDS011;4940;50.900;4.672;2023-07-02T03:07:15;44.53;;;40.15;;
9801;SDS011;4940;50.900;4.672;2023-07-02T03:09:43;42.80;;;37.90;;
9801;SDS011;4940;50.900;4.672;2023-07-02T03:12:10;45.47;;;39.53;;
9801;SDS011;4940;50.900;4.672;2023-07-02T03:14:37;39.35;;;35.08;;
9801;SDS011;4940;50.900;4.672;2023-07-02T03:17:05;47.88;;;43.42;;
9801;SDS011;4940;50.900;4.672;2023-07-02T03:19:32;44.25;;;37.95;;
9801;SDS011;4940;50.900;4.672;2023-07-02T03:22:01;46.00;;;41.25;;
9801;SDS011;4940;50.900;4.672;2023-07-02T03:24:28;50.42;;;45.00;;
9801;SDS011;4940;50.900;4.672;2023-07-02T03:26:55;51.25;;;45.83;;
9801;SDS011;4940;50.900;4.672;2023-07-02T03:29:23;50.33;;;45.47;;
9801;SDS011;4940;50.900;4.672;2023-07-02T03:31:50;52.25;;;46.67;;
9801;SDS011;4940;50.900;4.672;2023-07-02T03:34:17;44.45;;;39.70;;
9801;SDS011;4940;50.900;4.672;2023-07-02T03:36:45;52.00;;;46.80;;
9801;SDS011;4940;50.900;4.672;2023-07-02T03:39:14;50.20;;;45.25;;
9801;SDS011;4940;50.900;4.672;2023-07-02T03:41:42;51.75;;;46.20;;
9801;SDS011;4940;50.900;4.672;2023-07-02T03:44:10;45.45;;;40.10;;
9801;SDS011;4940;50.900;4.672;2023-07-02T03:46:37;46.25;;;41.00;;
9801;SDS011;4940;50.900;4.672;2023-07-02T03:49:04;49.83;;;44.30;;
9801;SDS011;4940;50.900;4.672;2023-07-02T03:51:31;47.75;;;39.22;;
9801;SDS011;4940;50.900;4.672;2023-07-02T03:53:59;45.78;;;38.53;;
9801;SDS011;4940;50.900;4.672;2023-07-02T03:56:27;45.85;;;41.13;;
9801;SDS011;4940;50.900;4.672;2023-07-02T03:58:55;51.03;;;42.72;;
9801;SDS011;4940;50.900;4.672;2023-07-02T04:01:22;48.13;;;38.55;;
9801;SDS011;4940;50.900;4.672;2023-07-02T04:03:50;47.88;;;38.67;;
9801;SDS011;4940;50.900;4.672;2023-07-02T04:06:18;49.33;;;42.03;;
9801;SDS011;4940;50.900;4.672;2023-07-02T04:08:45;48.22;;;38.50;;
9801;SDS011;4940;50.900;4.672;2023-07-02T04:11:12;43.20;;;38.38;;
9801;SDS011;4940;50.900;4.672;2023-07-02T04:13:41;57.92;;;38.83;;
9801;SDS011;4940;50.900;4.672;2023-07-02T04:16:08;48.45;;;39.80;;
9801;SDS011;4940;50.900;4.672;2023-07-02T04:18:36;49.55;;;39.03;;
9801;SDS011;4940;50.900;4.672;2023-07-02T04:21:03;48.17;;;38.53;;
9801;SDS011;4940;50.900;4.672;2023-07-02T04:23:31;47.78;;;41.53;;
9801;SDS011;4940;50.900;4.672;2023-07-02T04:25:58;62.00;;;41.47;;
9801;SDS011;4940;50.900;4.672;2023-07-02T04:28:25;48.28;;;39.05;;
9801;SDS011;4940;50.900;4.672;2023-07-02T04:30:54;51.67;;;40.70;;
9801;SDS011;4940;50.900;4.672;2023-07-02T04:33:21;46.55;;;40.95;;
9801;SDS011;4940;50.900;4.672;2023-07-02T04:35:49;51.80;;;39.90;;
9801;SDS011;4940;50.900;4.672;2023-07-02T04:38:16;49.28;;;40.15;;
9801;SDS011;4940;50.900;4.672;2023-07-02T04:40:43;50.90;;;40.75;;
9801;SDS011;4940;50.900;4.672;2023-07-02T04:43:11;49.80;;;42.72;;
9801;SDS011;4940;50.900;4.672;2023-07-02T04:45:38;51.55;;;40.50;;
9801;SDS011;4940;50.900;4.672;2023-07-02T04:48:11;54.47;;;41.47;;
9801;SDS011;4940;50.900;4.672;2023-07-02T04:50:38;48.65;;;40.78;;
9801;SDS011;4940;50.900;4.672;2023-07-02T04:53:06;54.90;;;43.10;;
9801;SDS011;4940;50.900;4.672;2023-07-02T04:55:33;47.97;;;39.70;;
9801;SDS011;4940;50.900;4.672;2023-07-02T04:58:01;52.20;;;40.97;;
9801;SDS011;4940;50.900;4.672;2023-07-02T05:00:28;46.70;;;40.42;;
9801;SDS011;4940;50.900;4.672;2023-07-02T05:02:55;51.60;;;43.63;;
9801;SDS011;4940;50.900;4.672;2023-07-02T05:05:24;52.13;;;42.28;;
9801;SDS011;4940;50.900;4.672;2023-07-02T05:07:51;55.80;;;41.28;;
9801;SDS011;4940;50.900;4.672;2023-07-02T05:10:19;51.83;;;40.92;;
9801;SDS011;4940;50.900;4.672;2023-07-02T05:12:47;53.65;;;39.15;;
9801;SDS011;4940;50.900;4.672;2023-07-02T05:15:14;46.28;;;40.90;;
9801;SDS011;4940;50.900;4.672;2023-07-02T05:17:41;47.33;;;39.05;;
9801;SDS011;4940;50.900;4.672;2023-07-02T05:20:09;46.45;;;38.03;;
9801;SDS011;4940;50.900;4.672;2023-07-02T05:22:38;45.30;;;38.65;;
9801;SDS011;4940;50.900;4.672;2023-07-02T05:25:05;44.28;;;38.10;;
9801;SDS011;4940;50.900;4.672;2023-07-02T05:27:33;48.35;;;38.10;;
9801;SDS011;4940;50.900;4.672;2023-07-02T05:30:00;47.50;;;36.80;;
9801;SDS011;4940;50.900;4.672;2023-07-02T05:32:28;46.22;;;38.47;;
9801;SDS011;4940;50.900;4.672;2023-07-02T05:34:55;49.35;;;37.78;;
9801;SDS011;4940;50.900;4.672;2023-07-02T05:37:23;49.03;;;37.95;;
9801;SDS011;4940;50.900;4.672;2023-07-02T05:39:52;42.83;;;35.70;;
9801;SDS011;4940;50.900;4.672;2023-07-02T05:42:19;40.80;;;35.97;;
9801;SDS011;4940;50.900;4.672;2023-07-02T05:44:46;48.45;;;35.15;;
9801;SDS011;4940;50.900;4.672;2023-07-02T05:47:14;45.42;;;35.95;;
9801;SDS011;4940;50.900;4.672;2023-07-02T05:49:41;49.95;;;35.47;;
9801;SDS011;4940;50.900;4.672;2023-07-02T05:52:09;46.08;;;33.15;;
9801;SDS011;4940;50.900;4.672;2023-07-02T05:54:38;38.75;;;32.67;;
9801;SDS011;4940;50.900;4.672;2023-07-02T05:57:07;37.20;;;30.75;;
9801;SDS011;4940;50.900;4.672;2023-07-02T05:59:34;47.15;;;31.52;;
9801;SDS011;4940;50.900;4.672;2023-07-02T06:02:02;46.05;;;30.35;;
9801;SDS011;4940;50.900;4.672;2023-07-02T06:04:29;36.58;;;28.08;;
9801;SDS011;4940;50.900;4.672;2023-07-02T06:06:56;40.55;;;29.08;;
9801;SDS011;4940;50.900;4.672;2023-07-02T06:09:24;34.10;;;26.85;;
9801;SDS011;4940;50.900;4.672;2023-07-02T06:11:51;38.45;;;25.90;;
9801;SDS011;4940;50.900;4.672;2023-07-02T06:14:19;33.50;;;24.58;;
9801;SDS011;4940;50.900;4.672;2023-07-02T06:16:48;41.90;;;26.30;;
9801;SDS011;4940;50.900;4.672;2023-07-02T06:19:16;35.15;;;22.85;;
9801;SDS011;4940;50.900;4.672;2023-07-02T06:21:43;36.80;;;21.75;;
9801;SDS011;4940;50.900;4.672;2023-07-02T06:24:11;34.85;;;20.73;;
9801;SDS011;4940;50.900;4.672;2023-07-02T06:26:38;28.52;;;20.30;;
9801;SDS011;4940;50.900;4.672;2023-07-02T06:29:05;33.40;;;20.42;;
9801;SDS011;4940;50.900;4.672;2023-07-02T06:31:34;39.33;;;20.77;;
9801;SDS011;4940;50.900;4.672;2023-07-02T06:34:01;31.65;;;18.63;;
9801;SDS011;4940;50.900;4.672;2023-07-02T06:36:28;32.10;;;19.08;;
9801;SDS011;4940;50.900;4.672;2023-07-02T06:38:56;34.58;;;19.13;;
9801;SDS011;4940;50.900;4.672;2023-07-02T06:41:23;30.33;;;18.52;;
9801;SDS011;4940;50.900;4.672;2023-07-02T06:43:50;32.80;;;19.35;;
9801;SDS011;4940;50.900;4.672;2023-07-02T06:46:18;30.70;;;16.30;;
9801;SDS011;4940;50.900;4.672;2023-07-02T06:48:50;31.70;;;15.07;;
9801;SDS011;4940;50.900;4.672;2023-07-02T06:51:17;31.02;;;14.63;;
9801;SDS011;4940;50.900;4.672;2023-07-02T06:53:46;30.83;;;14.15;;
9801;SDS011;4940;50.900;4.672;2023-07-02T06:56:13;28.92;;;12.50;;
9801;SDS011;4940;50.900;4.672;2023-07-02T06:58:41;23.30;;;13.00;;
9801;SDS011;4940;50.900;4.672;2023-07-02T07:01:09;34.45;;;14.60;;
9801;SDS011;4940;50.900;4.672;2023-07-02T07:03:37;28.48;;;13.35;;
9801;SDS011;4940;50.900;4.672;2023-07-02T07:06:05;24.38;;;13.18;;
9801;SDS011;4940;50.900;4.672;2023-07-02T07:08:32;24.83;;;12.82;;
9801;SDS011;4940;50.900;4.672;2023-07-02T07:11:03;28.63;;;10.63;;
9801;SDS011;4940;50.900;4.672;2023-07-02T07:13:30;24.48;;;11.18;;
9801;SDS011;4940;50.900;4.672;2023-07-02T07:15:57;21.75;;;10.40;;
9801;SDS011;4940;50.900;4.672;2023-07-02T07:18:25;22.13;;;9.73;;
9801;SDS011;4940;50.900;4.672;2023-07-02T07:20:52;18.52;;;9.85;;
9801;SDS011;4940;50.900;4.672;2023-07-02T07:23:22;18.75;;;8.80;;
9801;SDS011;4940;50.900;4.672;2023-07-02T07:25:49;21.38;;;8.95;;
9801;SDS011;4940;50.900;4.672;2023-07-02T07:28:16;18.10;;;9.30;;
9801;SDS011;4940;50.900;4.672;2023-07-02T07:30:44;20.90;;;10.43;;
9801;SDS011;4940;50.900;4.672;2023-07-02T07:33:11;20.10;;;9.80;;
9801;SDS011;4940;50.900;4.672;2023-07-02T07:35:38;17.88;;;8.73;;
9801;SDS011;4940;50.900;4.672;2023-07-02T07:38:06;19.45;;;9.18;;
9801;SDS011;4940;50.900;4.672;2023-07-02T07:40:35;22.05;;;9.45;;
9801;SDS011;4940;50.900;4.672;2023-07-02T07:43:02;18.27;;;8.50;;
9801;SDS011;4940;50.900;4.672;2023-07-02T07:45:29;16.98;;;8.45;;
9801;SDS011;4940;50.900;4.672;2023-07-02T07:47:57;14.98;;;7.38;;
9801;SDS011;4940;50.900;4.672;2023-07-02T07:50:24;16.88;;;7.90;;
9801;SDS011;4940;50.900;4.672;2023-07-02T07:52:51;20.33;;;7.55;;
9801;SDS011;4940;50.900;4.672;2023-07-02T07:55:19;15.95;;;7.15;;
9801;SDS011;4940;50.900;4.672;2023-07-02T07:57:47;17.67;;;7.22;;
9801;SDS011;4940;50.900;4.672;2023-07-02T08:00:15;14.23;;;7.85;;
9801;SDS011;4940;50.900;4.672;2023-07-02T08:02:42;12.52;;;5.97;;
9801;SDS011;4940;50.900;4.672;2023-07-02T08:05:10;13.10;;;5.60;;
9801;SDS011;4940;50.900;4.672;2023-07-02T08:07:37;13.27;;;5.38;;
9801;SDS011;4940;50.900;4.672;2023-07-02T08:10:06;12.00;;;5.80;;
9801;SDS011;4940;50.900;4.672;2023-07-02T08:12:34;12.90;;;5.63;;
9801;SDS011;4940;50.900;4.672;2023-07-02T08:15:03;10.68;;;5.40;;
9801;SDS011;4940;50.900;4.672;2023-07-02T08:17:31;12.73;;;5.45;;
9801;SDS011;4940;50.900;4.672;2023-07-02T08:19:58;10.95;;;5.13;;
9801;SDS011;4940;50.900;4.672;2023-07-02T08:22:25;9.07;;;4.68;;
9801;SDS011;4940;50.900;4.672;2023-07-02T08:24:53;9.82;;;5.07;;
9801;SDS011;4940;50.900;4.672;2023-07-02T08:27:21;10.93;;;4.82;;
9801;SDS011;4940;50.900;4.672;2023-07-02T08:29:48;8.48;;;4.68;;
9801;SDS011;4940;50.900;4.672;2023-07-02T08:32:17;12.93;;;4.80;;
9801;SDS011;4940;50.900;4.672;2023-07-02T08:34:44;9.07;;;4.57;;
9801;SDS011;4940;50.900;4.672;2023-07-02T08:37:12;10.27;;;4.93;;
9801;SDS011;4940;50.900;4.672;2023-07-02T08:39:39;10.93;;;4.35;;
9801;SDS011;4940;50.900;4.672;2023-07-02T08:42:06;7.78;;;4.68;;
9801;SDS011;4940;50.900;4.672;2023-07-02T08:44:34;10.40;;;5.88;;
9801;SDS011;4940;50.900;4.672;2023-07-02T08:47:01;10.38;;;5.35;;
9801;SDS011;4940;50.900;4.672;2023-07-02T08:49:30;10.77;;;5.00;;
9801;SDS011;4940;50.900;4.672;2023-07-02T08:51:58;12.65;;;5.13;;
9801;SDS011;4940;50.900;4.672;2023-07-02T08:54:25;9.90;;;5.53;;
9801;SDS011;4940;50.900;4.672;2023-07-02T08:56:52;10.38;;;5.53;;
9801;SDS011;4940;50.900;4.672;2023-07-02T08:59:20;13.27;;;5.97;;
9801;SDS011;4940;50.900;4.672;2023-07-02T09:01:48;15.82;;;7.20;;
9801;SDS011;4940;50.900;4.672;2023-07-02T09:04:17;11.98;;;6.20;;
9801;SDS011;4940;50.900;4.672;2023-07-02T09:06:47;10.60;;;6.65;;
9801;SDS011;4940;50.900;4.672;2023-07-02T09:09:14;12.85;;;6.25;;
9801;SDS011;4940;50.900;4.672;2023-07-02T09:11:48;9.85;;;6.00;;
9801;SDS011;4940;50.900;4.672;2023-07-02T09:14:25;11.38;;;6.80;;
9801;SDS011;4940;50.900;4.672;2023-07-02T09:17:03;13.73;;;6.97;;
9801;SDS011;4940;50.900;4.672;2023-07-02T09:19:32;16.05;;;7.75;;
9801;SDS011;4940;50.900;4.672;2023-07-02T09:22:01;17.10;;;7.20;;
9801;SDS011;4940;50.900;4.672;2023-07-02T09:24:29;10.60;;;6.93;;
9801;SDS011;4940;50.900;4.672;2023-07-02T09:26:57;19.98;;;7.68;;
9801;SDS011;4940;50.900;4.672;2023-07-02T09:29:26;13.82;;;7.43;;
9801;SDS011;4940;50.900;4.672;2023-07-02T09:31:54;27.73;;;7.60;;
9801;SDS011;4940;50.900;4.672;2023-07-02T09:34:26;13.30;;;6.65;;
9801;SDS011;4940;50.900;4.672;2023-07-02T09:36:55;18.65;;;8.25;;
9801;SDS011;4940;50.900;4.672;2023-07-02T09:39:26;15.48;;;8.25;;
9801;SDS011;4940;50.900;4.672;2023-07-02T09:41:54;15.77;;;7.28;;
9801;SDS011;4940;50.900;4.672;2023-07-02T09:44:25;18.20;;;8.45;;
9801;SDS011;4940;50.900;4.672;2023-07-02T09:46:56;16.63;;;8.13;;
9801;SDS011;4940;50.900;4.672;2023-07-02T09:49:29;17.83;;;8.18;;
9801;SDS011;4940;50.900;4.672;2023-07-02T09:51:59;19.30;;;7.93;;
9801;SDS011;4940;50.900;4.672;2023-07-02T09:54:29;14.63;;;7.95;;
9801;SDS011;4940;50.900;4.672;2023-07-02T09:56:56;17.25;;;7.63;;
9801;SDS011;4940;50.900;4.672;2023-07-02T09:59:25;14.93;;;6.95;;
9801;SDS011;4940;50.900;4.672;2023-07-02T10:01:52;17.08;;;7.25;;
9801;SDS011;4940;50.900;4.672;2023-07-02T10:04:20;16.48;;;7.68;;
9801;SDS011;4940;50.900;4.672;2023-07-02T10:06:49;14.93;;;7.30;;
9801;SDS011;4940;50.900;4.672;2023-07-02T10:09:17;16.33;;;7.75;;
9801;SDS011;4940;50.900;4.672;2023-07-02T10:11:46;17.52;;;8.35;;
9801;SDS011;4940;50.900;4.672;2023-07-02T10:14:14;14.82;;;7.28;;
9801;SDS011;4940;50.900;4.672;2023-07-02T10:16:51;12.98;;;7.68;;
9801;SDS011;4940;50.900;4.672;2023-07-02T10:19:19;15.77;;;8.05;;
9801;SDS011;4940;50.900;4.672;2023-07-02T10:21:47;14.68;;;7.85;;
9801;SDS011;4940;50.900;4.672;2023-07-02T10:24:27;18.25;;;7.50;;
9801;SDS011;4940;50.900;4.672;2023-07-02T10:26:56;16.90;;;7.57;;
9801;SDS011;4940;50.900;4.672;2023-07-02T10:29:24;12.48;;;6.78;;
9801;SDS011;4940;50.900;4.672;2023-07-02T10:31:53;15.50;;;7.93;;
9801;SDS011;4940;50.900;4.672;2023-07-02T10:34:30;17.77;;;7.60;;
9801;SDS011;4940;50.900;4.672;2023-07-02T10:36:59;14.85;;;7.57;;
9801;SDS011;4940;50.900;4.672;2023-07-02T10:39:26;16.67;;;7.55;;
9801;SDS011;4940;50.900;4.672;2023-07-02T10:42:04;18.98;;;8.15;;
9801;SDS011;4940;50.900;4.672;2023-07-02T10:44:32;14.38;;;7.32;;
9801;SDS011;4940;50.900;4.672;2023-07-02T10:46:59;13.60;;;7.68;;
9801;SDS011;4940;50.900;4.672;2023-07-02T10:49:30;15.02;;;7.32;;
9801;SDS011;4940;50.900;4.672;2023-07-02T10:51:58;17.70;;;6.97;;
9801;SDS011;4940;50.900;4.672;2023-07-02T10:54:25;16.65;;;6.88;;
9801;SDS011;4940;50.900;4.672;2023-07-02T10:56:56;16.27;;;7.43;;
9801;SDS011;4940;50.900;4.672;2023-07-02T10:59:25;12.48;;;6.68;;
9801;SDS011;4940;50.900;4.672;2023-07-02T11:01:53;17.08;;;7.60;;
9801;SDS011;4940;50.900;4.672;2023-07-02T11:04:20;15.07;;;7.50;;
9801;SDS011;4940;50.900;4.672;2023-07-02T11:06:49;15.45;;;7.20;;
9801;SDS011;4940;50.900;4.672;2023-07-02T11:09:16;19.45;;;7.32;;
9801;SDS011;4940;50.900;4.672;2023-07-02T11:11:51;17.15;;;7.70;;
9801;SDS011;4940;50.900;4.672;2023-07-02T11:14:33;13.15;;;6.78;;
9801;SDS011;4940;50.900;4.672;2023-07-02T11:17:02;16.10;;;7.47;;
9801;SDS011;4940;50.900;4.672;2023-07-02T11:19:31;15.35;;;7.00;;
9801;SDS011;4940;50.900;4.672;2023-07-02T11:22:01;14.10;;;7.28;;
9801;SDS011;4940;50.900;4.672;2023-07-02T11:24:30;12.40;;;7.18;;
9801;SDS011;4940;50.900;4.672;2023-07-02T11:26:58;13.98;;;7.40;;
9801;SDS011;4940;50.900;4.672;2023-07-02T11:29:27;20.00;;;7.60;;
9801;SDS011;4940;50.900;4.672;2023-07-02T11:32:05;15.20;;;7.10;;
9801;SDS011;4940;50.900;4.672;2023-07-02T11:34:32;16.33;;;6.97;;
9801;SDS011;4940;50.900;4.672;2023-07-02T11:37:00;15.05;;;6.88;;
9801;SDS011;4940;50.900;4.672;2023-07-02T11:39:28;15.30;;;7.40;;
9801;SDS011;4940;50.900;4.672;2023-07-02T11:41:55;16.33;;;7.25;;
9801;SDS011;4940;50.900;4.672;2023-07-02T11:44:23;14.02;;;7.00;;
9801;SDS011;4940;50.900;4.672;2023-07-02T11:46:50;14.38;;;6.97;;
9801;SDS011;4940;50.900;4.672;2023-07-02T11:49:19;15.88;;;7.10;;
9801;SDS011;4940;50.900;4.672;2023-07-02T11:51:46;13.48;;;7.43;;
9801;SDS011;4940;50.900;4.672;2023-07-02T11:54:14;13.30;;;7.20;;
9801;SDS011;4940;50.900;4.672;2023-07-02T11:56:43;13.27;;;6.43;;
9801;SDS011;4940;50.900;4.672;2023-07-02T11:59:11;15.77;;;6.93;;
9801;SDS011;4940;50.900;4.672;2023-07-02T12:01:38;12.43;;;6.63;;
9801;SDS011;4940;50.900;4.672;2023-07-02T12:04:06;15.57;;;7.28;;
9801;SDS011;4940;50.900;4.672;2023-07-02T12:06:35;17.42;;;7.43;;
9801;SDS011;4940;50.900;4.672;2023-07-02T12:09:02;13.32;;;6.80;;
9801;SDS011;4940;50.900;4.672;2023-07-02T12:11:29;16.08;;;6.85;;
9801;SDS011;4940;50.900;4.672;2023-07-02T12:13:57;12.15;;;6.38;;
9801;SDS011;4940;50.900;4.672;2023-07-02T12:16:24;15.32;;;6.35;;
9801;SDS011;4940;50.900;4.672;2023-07-02T12:18:51;14.23;;;6.30;;
9801;SDS011;4940;50.900;4.672;2023-07-02T12:21:19;11.18;;;6.22;;
9801;SDS011;4940;50.900;4.672;2023-07-02T12:23:47;13.55;;;7.28;;
9801;SDS011;4940;50.900;4.672;2023-07-02T12:26:15;16.50;;;7.05;;
9801;SDS011;4940;50.900;4.672;2023-07-02T12:28:42;13.35;;;7.00;;
9801;SDS011;4940;50.900;4.672;2023-07-02T12:31:09;16.30;;;7.88;;
9801;SDS011;4940;50.900;4.672;2023-07-02T12:33:38;15.38;;;6.53;;
9801;SDS011;4940;50.900;4.672;2023-07-02T12:36:05;14.80;;;6.88;;
9801;SDS011;4940;50.900;4.672;2023-07-02T12:38:33;14.02;;;6.78;;
9801;SDS011;4940;50.900;4.672;2023-07-02T12:41:01;15.93;;;6.90;;
9801;SDS011;4940;50.900;4.672;2023-07-02T12:43:28;14.77;;;7.28;;
9801;SDS011;4940;50.900;4.672;2023-07-02T12:45:56;16.52;;;6.95;;
9801;SDS011;4940;50.900;4.672;2023-07-02T12:48:23;16.35;;;7.13;;
9801;SDS011;4940;50.900;4.672;2023-07-02T12:50:54;14.77;;;6.68;;
9801;SDS011;4940;50.900;4.672;2023-07-02T12:53:21;12.20;;;6.55;;
9801;SDS011;4940;50.900;4.672;2023-07-02T12:55:49;14.80;;;6.93;;
9801;SDS011;4940;50.900;4.672;2023-07-02T12:58:18;9.77;;;6.13;;
9801;SDS011;4940;50.900;4.672;2023-07-02T13:00:45;14.27;;;6.95;;
9801;SDS011;4940;50.900;4.672;2023-07-02T13:03:13;16.98;;;6.78;;
9801;SDS011;4940;50.900;4.672;2023-07-02T13:05:42;12.60;;;6.30;;
9801;SDS011;4940;50.900;4.672;2023-07-02T13:08:09;16.30;;;7.40;;
9801;SDS011;4940;50.900;4.672;2023-07-02T13:10:37;14.52;;;7.38;;
9801;SDS011;4940;50.900;4.672;2023-07-02T13:13:05;14.55;;;6.97;;
9801;SDS011;4940;50.900;4.672;2023-07-02T13:15:33;14.57;;;6.95;;
9801;SDS011;4940;50.900;4.672;2023-07-02T13:18:01;13.10;;;6.03;;
9801;SDS011;4940;50.900;4.672;2023-07-02T13:20:28;15.90;;;6.95;;
9801;SDS011;4940;50.900;4.672;2023-07-02T13:22:55;11.07;;;6.20;;
9801;SDS011;4940;50.900;4.672;2023-07-02T13:25:23;15.73;;;7.55;;
9801;SDS011;4940;50.900;4.672;2023-07-02T13:27:51;11.50;;;6.68;;
9801;SDS011;4940;50.900;4.672;2023-07-02T13:30:18;11.65;;;6.47;;
9801;SDS011;4940;50.900;4.672;2023-07-02T13:32:47;12.98;;;6.75;;
9801;SDS011;4940;50.900;4.672;2023-07-02T13:35:14;11.95;;;6.07;;
9801;SDS011;4940;50.900;4.672;2023-07-02T13:37:41;10.93;;;5.78;;
9801;SDS011;4940;50.900;4.672;2023-07-02T13:40:09;11.63;;;6.35;;
9801;SDS011;4940;50.900;4.672;2023-07-02T13:42:38;10.73;;;5.70;;
9801;SDS011;4940;50.900;4.672;2023-07-02T13:45:05;11.70;;;6.18;;
9801;SDS011;4940;50.900;4.672;2023-07-02T13:47:34;13.90;;;5.90;;
9801;SDS011;4940;50.900;4.672;2023-07-02T13:50:03;11.27;;;6.55;;
9801;SDS011;4940;50.900;4.672;2023-07-02T13:52:31;14.63;;;5.82;;
9801;SDS011;4940;50.900;4.672;2023-07-02T13:54:58;14.68;;;5.68;;
9801;SDS011;4940;50.900;4.672;2023-07-02T13:57:25;11.65;;;6.00;;
9801;SDS011;4940;50.900;4.672;2023-07-02T13:59:54;11.93;;;6.00;;
9801;SDS011;4940;50.900;4.672;2023-07-02T14:02:22;11.25;;;5.50;;
9801;SDS011;4940;50.900;4.672;2023-07-02T14:04:49;10.13;;;5.75;;
9801;SDS011;4940;50.900;4.672;2023-07-02T14:07:17;10.55;;;5.47;;
9801;SDS011;4940;50.900;4.672;2023-07-02T14:09:44;12.23;;;5.38;;
9801;SDS011;4940;50.900;4.672;2023-07-02T14:12:11;11.48;;;5.78;;
9801;SDS011;4940;50.900;4.672;2023-07-02T14:14:39;11.77;;;5.72;;
9801;SDS011;4940;50.900;4.672;2023-07-02T14:17:07;12.38;;;5.40;;
9801;SDS011;4940;50.900;4.672;2023-07-02T14:19:35;13.70;;;6.13;;
9801;SDS011;4940;50.900;4.672;2023-07-02T14:22:02;15.15;;;5.88;;
9801;SDS011;4940;50.900;4.672;2023-07-02T14:24:30;10.73;;;5.97;;
9801;SDS011;4940;50.900;4.672;2023-07-02T14:26:57;13.02;;;6.22;;
9801;SDS011;4940;50.900;4.672;2023-07-02T14:29:25;13.80;;;5.82;;
9801;SDS011;4940;50.900;4.672;2023-07-02T14:31:52;12.77;;;6.07;;
9801;SDS011;4940;50.900;4.672;2023-07-02T14:34:21;13.05;;;5.63;;
9801;SDS011;4940;50.900;4.672;2023-07-02T14:36:48;13.43;;;5.63;;
9801;SDS011;4940;50.900;4.672;2023-07-02T14:39:15;13.10;;;5.82;;
9801;SDS011;4940;50.900;4.672;2023-07-02T14:41:43;12.38;;;6.10;;
9801;SDS011;4940;50.900;4.672;2023-07-02T14:44:10;11.88;;;6.03;;
9801;SDS011;4940;50.900;4.672;2023-07-02T14:46:38;13.93;;;6.45;;
9801;SDS011;4940;50.900;4.672;2023-07-02T14:49:05;14.82;;;6.93;;
9801;SDS011;4940;50.900;4.672;2023-07-02T14:51:34;12.60;;;5.82;;
9801;SDS011;4940;50.900;4.672;2023-07-02T14:54:01;13.32;;;5.57;;
9801;SDS011;4940;50.900;4.672;2023-07-02T14:56:29;12.00;;;6.22;;
9801;SDS011;4940;50.900;4.672;2023-07-02T14:58:56;10.02;;;5.25;;
9801;SDS011;4940;50.900;4.672;2023-07-02T15:01:24;12.80;;;6.20;;